sensor_id;sensor_type;location;lat;lon;timestamp;P1;durP1;ratioP1;P2;durP2;ratioP2
56391;SDS011;42289;53.582;9.714;2022-09-06T00:00:32;4.75;;;1.55;;
56391;SDS011;42289;53.582;9.714;2022-09-06T00:02:59;3.05;;;1.60;;
56391;SDS011;42289;53.582;9.714;2022-09-06T00:05:26;3.63;;;1.50;;
56391;SDS011;42289;53.582;9.714;2022-09-06T00:07:54;3.40;;;1.50;;
56391;SDS011;42289;53.582;9.714;2022-09-06T00:10:23;2.83;;;1.48;;
56391;SDS011;42289;53.582;9.714;2022-09-06T00:12:49;4.57;;;1.60;;
56391;SDS011;42289;53.582;9.714;2022-09-06T00:15:16;5.57;;;1.60;;
56391;SDS011;42289;53.582;9.714;2022-09-06T00:17:43;4.10;;;1.60;;
56391;SDS011;42289;53.582;9.714;2022-09-06T00:20:09;4.43;;;1.50;;
56391;SDS011;42289;53.582;9.714;2022-09-06T00:22:35;4.88;;;1.58;;
56391;SDS011;42289;53.582;9.714;2022-09-06T00:25:04;3.30;;;1.60;;
56391;SDS011;42289;53.582;9.714;2022-09-06T00:27:31;5.75;;;1.52;;
56391;SDS011;42289;53.582;9.714;2022-09-06T00:29:58;3.58;;;1.70;;
56391;SDS011;42289;53.582;9.714;2022-09-06T00:32:25;3.00;;;1.40;;
56391;SDS011;42289;53.582;9.714;2022-09-06T00:34:51;5.82;;;1.63;;
56391;SDS011;42289;53.582;9.714;2022-09-06T00:37:18;5.20;;;1.58;;
56391;SDS011;42289;53.582;9.714;2022-09-06T00:39:44;5.75;;;1.77;;
56391;SDS011;42289;53.582;9.714;2022-09-06T00:42:12;3.88;;;1.70;;
56391;SDS011;42289;53.582;9.714;2022-09-06T00:44:39;5.25;;;1.63;;
56391;SDS011;42289;53.582;9.714;2022-09-06T00:47:06;4.70;;;1.73;;
56391;SDS011;42289;53.582;9.714;2022-09-06T00:49:33;6.90;;;2.03;;
56391;SDS011;42289;53.582;9.714;2022-09-06T00:52:05;3.80;;;1.70;;
56391;SDS011;42289;53.582;9.714;2022-09-06T00:54:34;3.15;;;1.80;;
56391;SDS011;42289;53.582;9.714;2022-09-06T00:57:01;3.95;;;1.80;;
56391;SDS011;42289;53.582;9.714;2022-09-06T00:59:30;3.60;;;1.90;;
56391;SDS011;42289;53.582;9.714;2022-09-06T01:01:58;5.75;;;2.05;;
56391;SDS011;42289;53.582;9.714;2022-09-06T01:04:25;5.13;;;1.48;;
56391;SDS011;42289;53.582;9.714;2022-09-06T01:06:54;5.70;;;1.70;;
56391;SDS011;42289;53.582;9.714;2022-09-06T01:09:30;8.25;;;2.15;;
56391;SDS011;42289;53.582;9.714;2022-09-06T01:12:15;4.60;;;1.75;;
56391;SDS011;42289;53.582;9.714;2022-09-06T01:14:55;4.25;;;1.95;;
56391;SDS011;42289;53.582;9.714;2022-09-06T01:17:33;3.70;;;2.00;;
56391;SDS011;42289;53.582;9.714;2022-09-06T01:20:20;3.95;;;1.73;;
56391;SDS011;42289;53.582;9.714;2022-09-06T01:23:05;4.75;;;1.83;;
56391;SDS011;42289;53.582;9.714;2022-09-06T01:26:02;5.72;;;2.30;;
56391;SDS011;42289;53.582;9.714;2022-09-06T01:28:35;3.47;;;1.80;;
56391;SDS011;42289;53.582;9.714;2022-09-06T01:31:08;5.47;;;2.00;;
56391;SDS011;42289;53.582;9.714;2022-09-06T01:33:45;4.38;;;1.90;;
56391;SDS011;42289;53.582;9.714;2022-09-06T01:36:16;4.63;;;1.92;;
56391;SDS011;42289;53.582;9.714;2022-09-06T01:38:45;5.78;;;1.80;;
56391;SDS011;42289;53.582;9.714;2022-09-06T01:41:12;5.20;;;2.00;;
56391;SDS011;42289;53.582;9.714;2022-09-06T01:43:40;4.82;;;2.00;;
56391;SDS011;42289;53.582;9.714;2022-09-06T01:46:12;4.35;;;1.88;;
56391;SDS011;42289;53.582;9.714;2022-09-06T01:48:49;4.15;;;2.10;;
56391;SDS011;42289;53.582;9.714;2022-09-06T01:51:29;5.28;;;2.00;;
56391;SDS011;42289;53.582;9.714;2022-09-06T01:54:20;5.32;;;2.25;;
56391;SDS011;42289;53.582;9.714;2022-09-06T01:56:56;5.93;;;2.08;;
56391;SDS011;42289;53.582;9.714;2022-09-06T01:59:43;3.63;;;1.90;;
56391;SDS011;42289;53.582;9.714;2022-09-06T02:02:28;5.63;;;2.22;;
56391;SDS011;42289;53.582;9.714;2022-09-06T02:05:05;7.45;;;2.40;;
56391;SDS011;42289;53.582;9.714;2022-09-06T02:07:36;4.22;;;2.05;;
56391;SDS011;42289;53.582;9.714;2022-09-06T02:10:06;5.88;;;2.03;;
56391;SDS011;42289;53.582;9.714;2022-09-06T02:12:35;4.68;;;1.80;;
56391;SDS011;42289;53.582;9.714;2022-09-06T02:15:08;3.75;;;1.80;;
56391;SDS011;42289;53.582;9.714;2022-09-06T02:17:38;3.05;;;1.77;;
56391;SDS011;42289;53.582;9.714;2022-09-06T02:20:08;3.60;;;1.88;;
56391;SDS011;42289;53.582;9.714;2022-09-06T02:22:39;5.70;;;2.10;;
56391;SDS011;42289;53.582;9.714;2022-09-06T02:25:10;5.50;;;1.90;;
56391;SDS011;42289;53.582;9.714;2022-09-06T02:27:43;6.72;;;2.40;;
56391;SDS011;42289;53.582;9.714;2022-09-06T02:30:11;4.28;;;2.17;;
56391;SDS011;42289;53.582;9.714;2022-09-06T02:32:39;4.28;;;2.10;;
56391;SDS011;42289;53.582;9.714;2022-09-06T02:35:11;5.80;;;2.35;;
56391;SDS011;42289;53.582;9.714;2022-09-06T02:37:40;4.80;;;1.90;;
56391;SDS011;42289;53.582;9.714;2022-09-06T02:40:07;4.90;;;2.10;;
56391;SDS011;42289;53.582;9.714;2022-09-06T02:42:35;5.57;;;1.90;;
56391;SDS011;42289;53.582;9.714;2022-09-06T02:45:02;4.63;;;2.10;;
56391;SDS011;42289;53.582;9.714;2022-09-06T02:47:30;7.07;;;2.25;;
56391;SDS011;42289;53.582;9.714;2022-09-06T02:49:57;4.43;;;1.75;;
56391;SDS011;42289;53.582;9.714;2022-09-06T02:52:23;5.82;;;1.90;;
56391;SDS011;42289;53.582;9.714;2022-09-06T02:54:49;5.22;;;2.30;;
56391;SDS011;42289;53.582;9.714;2022-09-06T02:57:16;5.63;;;2.15;;
56391;SDS011;42289;53.582;9.714;2022-09-06T02:59:42;6.25;;;1.88;;
56391;SDS011;42289;53.582;9.714;2022-09-06T03:02:10;5.53;;;2.08;;
56391;SDS011;42289;53.582;9.714;2022-09-06T03:04:38;5.05;;;2.20;;
56391;SDS011;42289;53.582;9.714;2022-09-06T03:07:04;3.95;;;2.10;;
56391;SDS011;42289;53.582;9.714;2022-09-06T03:09:30;4.25;;;1.98;;
56391;SDS011;42289;53.582;9.714;2022-09-06T03:11:57;6.22;;;1.83;;
56391;SDS011;42289;53.582;9.714;2022-09-06T03:14:23;3.95;;;1.60;;
56391;SDS011;42289;53.582;9.714;2022-09-06T03:16:50;5.28;;;2.03;;
56391;SDS011;42289;53.582;9.714;2022-09-06T03:19:16;5.05;;;2.00;;
56391;SDS011;42289;53.582;9.714;2022-09-06T03:21:45;6.07;;;2.25;;
56391;SDS011;42289;53.582;9.714;2022-09-06T03:24:11;4.50;;;1.98;;
56391;SDS011;42289;53.582;9.714;2022-09-06T03:26:38;6.45;;;2.47;;
56391;SDS011;42289;53.582;9.714;2022-09-06T03:29:04;5.40;;;2.20;;
56391;SDS011;42289;53.582;9.714;2022-09-06T03:31:32;3.40;;;1.70;;
56391;SDS011;42289;53.582;9.714;2022-09-06T03:33:59;5.07;;;2.03;;
56391;SDS011;42289;53.582;9.714;2022-09-06T03:36:25;4.85;;;2.22;;
56391;SDS011;42289;53.582;9.714;2022-09-06T03:38:53;5.78;;;2.00;;
56391;SDS011;42289;53.582;9.714;2022-09-06T03:41:19;4.60;;;1.98;;
56391;SDS011;42289;53.582;9.714;2022-09-06T03:43:46;8.68;;;3.80;;
56391;SDS011;42289;53.582;9.714;2022-09-06T03:46:12;7.65;;;2.33;;
56391;SDS011;42289;53.582;9.714;2022-09-06T03:48:39;6.10;;;1.80;;
56391;SDS011;42289;53.582;9.714;2022-09-06T03:51:05;5.72;;;1.90;;
56391;SDS011;42289;53.582;9.714;2022-09-06T03:53:31;6.28;;;2.58;;
56391;SDS011;42289;53.582;9.714;2022-09-06T03:56:00;8.40;;;2.00;;
56391;SDS011;42289;53.582;9.714;2022-09-06T03:58:28;4.93;;;1.88;;
56391;SDS011;42289;53.582;9.714;2022-09-06T04:01:02;4.30;;;2.03;;
56391;SDS011;42289;53.582;9.714;2022-09-06T04:03:30;4.78;;;1.83;;
56391;SDS011;42289;53.582;9.714;2022-09-06T04:05:57;4.57;;;1.90;;
56391;SDS011;42289;53.582;9.714;2022-09-06T04:08:23;6.00;;;1.90;;
56391;SDS011;42289;53.582;9.714;2022-09-06T04:10:50;6.57;;;1.80;;
56391;SDS011;42289;53.582;9.714;2022-09-06T04:13:19;5.60;;;1.90;;
56391;SDS011;42289;53.582;9.714;2022-09-06T04:15:47;3.13;;;1.90;;
56391;SDS011;42289;53.582;9.714;2022-09-06T04:18:14;3.38;;;1.40;;
56391;SDS011;42289;53.582;9.714;2022-09-06T04:20:41;7.38;;;1.70;;
56391;SDS011;42289;53.582;9.714;2022-09-06T04:23:08;6.38;;;1.65;;
56391;SDS011;42289;53.582;9.714;2022-09-06T04:25:34;4.40;;;1.80;;
56391;SDS011;42289;53.582;9.714;2022-09-06T04:28:01;3.42;;;1.70;;
56391;SDS011;42289;53.582;9.714;2022-09-06T04:30:29;7.18;;;1.80;;
56391;SDS011;42289;53.582;9.714;2022-09-06T04:32:56;5.03;;;1.80;;
56391;SDS011;42289;53.582;9.714;2022-09-06T04:35:22;6.03;;;1.77;;
56391;SDS011;42289;53.582;9.714;2022-09-06T04:37:49;4.97;;;1.60;;
56391;SDS011;42289;53.582;9.714;2022-09-06T04:40:15;4.03;;;1.75;;
56391;SDS011;42289;53.582;9.714;2022-09-06T04:42:42;4.07;;;1.80;;
56391;SDS011;42289;53.582;9.714;2022-09-06T04:45:09;4.03;;;1.65;;
56391;SDS011;42289;53.582;9.714;2022-09-06T04:47:37;4.15;;;1.60;;
56391;SDS011;42289;53.582;9.714;2022-09-06T04:50:03;5.38;;;1.70;;
56391;SDS011;42289;53.582;9.714;2022-09-06T04:52:30;5.85;;;1.60;;
56391;SDS011;42289;53.582;9.714;2022-09-06T04:54:57;7.45;;;1.85;;
56391;SDS011;42289;53.582;9.714;2022-09-06T04:57:23;3.40;;;1.65;;
56391;SDS011;42289;53.582;9.714;2022-09-06T04:59:50;5.13;;;1.70;;
56391;SDS011;42289;53.582;9.714;2022-09-06T05:02:16;5.72;;;1.75;;
56391;SDS011;42289;53.582;9.714;2022-09-06T05:04:44;5.30;;;1.60;;
56391;SDS011;42289;53.582;9.714;2022-09-06T05:07:10;6.38;;;1.50;;
56391;SDS011;42289;53.582;9.714;2022-09-06T05:09:36;4.47;;;1.70;;
56391;SDS011;42289;53.582;9.714;2022-09-06T05:12:03;4.88;;;1.55;;
56391;SDS011;42289;53.582;9.714;2022-09-06T05:14:30;5.88;;;1.52;;
56391;SDS011;42289;53.582;9.714;2022-09-06T05:16:56;4.57;;;1.55;;
56391;SDS011;42289;53.582;9.714;2022-09-06T05:19:22;7.22;;;1.40;;
56391;SDS011;42289;53.582;9.714;2022-09-06T05:21:50;4.32;;;1.30;;
56391;SDS011;42289;53.582;9.714;2022-09-06T05:24:17;3.83;;;1.25;;
56391;SDS011;42289;53.582;9.714;2022-09-06T05:26:43;3.10;;;1.27;;
56391;SDS011;42289;53.582;9.714;2022-09-06T05:29:10;3.85;;;1.52;;
56391;SDS011;42289;53.582;9.714;2022-09-06T05:31:36;5.03;;;1.30;;
56391;SDS011;42289;53.582;9.714;2022-09-06T05:34:03;5.03;;;1.30;;
56391;SDS011;42289;53.582;9.714;2022-09-06T05:36:29;3.45;;;1.40;;
56391;SDS011;42289;53.582;9.714;2022-09-06T05:38:58;5.68;;;1.58;;
56391;SDS011;42289;53.582;9.714;2022-09-06T05:41:25;7.65;;;1.60;;
56391;SDS011;42289;53.582;9.714;2022-09-06T05:43:52;4.97;;;1.52;;
56391;SDS011;42289;53.582;9.714;2022-09-06T05:46:18;4.90;;;1.30;;
56391;SDS011;42289;53.582;9.714;2022-09-06T05:48:51;5.30;;;1.42;;
56391;SDS011;42289;53.582;9.714;2022-09-06T05:51:18;5.63;;;1.40;;
56391;SDS011;42289;53.582;9.714;2022-09-06T05:53:45;6.18;;;1.42;;
56391;SDS011;42289;53.582;9.714;2022-09-06T05:56:12;3.25;;;1.40;;
56391;SDS011;42289;53.582;9.714;2022-09-06T05:58:40;3.08;;;1.10;;
56391;SDS011;42289;53.582;9.714;2022-09-06T06:01:07;10.40;;;1.88;;
56391;SDS011;42289;53.582;9.714;2022-09-06T06:03:39;4.60;;;1.30;;
56391;SDS011;42289;53.582;9.714;2022-09-06T06:06:07;3.60;;;1.58;;
56391;SDS011;42289;53.582;9.714;2022-09-06T06:08:34;6.60;;;1.20;;
56391;SDS011;42289;53.582;9.714;2022-09-06T06:11:00;5.40;;;1.45;;
56391;SDS011;42289;53.582;9.714;2022-09-06T06:13:28;6.55;;;1.20;;
56391;SDS011;42289;53.582;9.714;2022-09-06T06:15:58;5.28;;;1.45;;
56391;SDS011;42289;53.582;9.714;2022-09-06T06:18:25;5.03;;;1.20;;
56391;SDS011;42289;53.582;9.714;2022-09-06T06:20:52;7.55;;;1.92;;
56391;SDS011;42289;53.582;9.714;2022-09-06T06:23:32;3.58;;;1.23;;
56391;SDS011;42289;53.582;9.714;2022-09-06T06:25:58;4.18;;;1.40;;
56391;SDS011;42289;53.582;9.714;2022-09-06T06:28:25;5.90;;;1.33;;
56391;SDS011;42289;53.582;9.714;2022-09-06T06:30:53;4.93;;;1.60;;
56391;SDS011;42289;53.582;9.714;2022-09-06T06:33:19;8.30;;;1.35;;
56391;SDS011;42289;53.582;9.714;2022-09-06T06:35:54;4.05;;;1.20;;
56391;SDS011;42289;53.582;9.714;2022-09-06T06:38:21;4.38;;;1.13;;
56391;SDS011;42289;53.582;9.714;2022-09-06T06:40:48;2.53;;;1.10;;
56391;SDS011;42289;53.582;9.714;2022-09-06T06:43:14;7.93;;;1.60;;
56391;SDS011;42289;53.582;9.714;2022-09-06T06:45:40;7.47;;;1.20;;
56391;SDS011;42289;53.582;9.714;2022-09-06T06:48:08;6.85;;;1.65;;
56391;SDS011;42289;53.582;9.714;2022-09-06T06:50:35;3.60;;;1.20;;
56391;SDS011;42289;53.582;9.714;2022-09-06T06:53:01;4.03;;;1.42;;
56391;SDS011;42289;53.582;9.714;2022-09-06T06:55:27;3.03;;;1.30;;
56391;SDS011;42289;53.582;9.714;2022-09-06T06:57:54;3.85;;;1.30;;
56391;SDS011;42289;53.582;9.714;2022-09-06T07:00:20;5.60;;;1.50;;
56391;SDS011;42289;53.582;9.714;2022-09-06T07:02:47;3.97;;;1.25;;
56391;SDS011;42289;53.582;9.714;2022-09-06T07:05:15;6.28;;;1.50;;
56391;SDS011;42289;53.582;9.714;2022-09-06T07:07:41;4.53;;;1.40;;
56391;SDS011;42289;53.582;9.714;2022-09-06T07:10:08;3.53;;;1.50;;
56391;SDS011;42289;53.582;9.714;2022-09-06T07:12:35;5.93;;;1.60;;
56391;SDS011;42289;53.582;9.714;2022-09-06T07:15:01;5.70;;;1.42;;
56391;SDS011;42289;53.582;9.714;2022-09-06T07:17:28;4.88;;;1.52;;
56391;SDS011;42289;53.582;9.714;2022-09-06T07:19:54;4.00;;;1.35;;
56391;SDS011;42289;53.582;9.714;2022-09-06T07:22:25;5.50;;;1.33;;
56391;SDS011;42289;53.582;9.714;2022-09-06T07:24:52;3.90;;;1.48;;
56391;SDS011;42289;53.582;9.714;2022-09-06T07:27:18;6.80;;;1.60;;
56391;SDS011;42289;53.582;9.714;2022-09-06T07:29:45;5.30;;;1.40;;
56391;SDS011;42289;53.582;9.714;2022-09-06T07:32:12;5.93;;;1.33;;
56391;SDS011;42289;53.582;9.714;2022-09-06T07:34:38;5.50;;;1.67;;
56391;SDS011;42289;53.582;9.714;2022-09-06T07:37:05;6.13;;;1.70;;
56391;SDS011;42289;53.582;9.714;2022-09-06T07:39:34;4.40;;;1.30;;
56391;SDS011;42289;53.582;9.714;2022-09-06T07:42:01;5.43;;;1.67;;
56391;SDS011;42289;53.582;9.714;2022-09-06T07:44:27;4.90;;;1.45;;
56391;SDS011;42289;53.582;9.714;2022-09-06T07:46:54;4.65;;;1.40;;
56391;SDS011;42289;53.582;9.714;2022-09-06T07:49:20;5.88;;;1.60;;
56391;SDS011;42289;53.582;9.714;2022-09-06T07:51:47;5.55;;;1.40;;
56391;SDS011;42289;53.582;9.714;2022-09-06T07:54:13;4.40;;;1.40;;
56391;SDS011;42289;53.582;9.714;2022-09-06T07:56:41;4.40;;;1.20;;
56391;SDS011;42289;53.582;9.714;2022-09-06T07:59:08;3.22;;;1.35;;
56391;SDS011;42289;53.582;9.714;2022-09-06T08:01:34;4.38;;;1.33;;
56391;SDS011;42289;53.582;9.714;2022-09-06T08:04:03;4.95;;;1.60;;
56391;SDS011;42289;53.582;9.714;2022-09-06T08:06:31;5.15;;;1.60;;
56391;SDS011;42289;53.582;9.714;2022-09-06T08:08:59;3.63;;;1.30;;
56391;SDS011;42289;53.582;9.714;2022-09-06T08:11:27;4.80;;;1.58;;
56391;SDS011;42289;53.582;9.714;2022-09-06T08:13:56;3.03;;;1.60;;
56391;SDS011;42289;53.582;9.714;2022-09-06T08:16:24;4.57;;;2.17;;
56391;SDS011;42289;53.582;9.714;2022-09-06T08:18:53;6.25;;;1.67;;
56391;SDS011;42289;53.582;9.714;2022-09-06T08:21:21;4.63;;;1.42;;
56391;SDS011;42289;53.582;9.714;2022-09-06T08:23:48;3.95;;;1.60;;
56391;SDS011;42289;53.582;9.714;2022-09-06T08:26:17;4.47;;;1.55;;
56391;SDS011;42289;53.582;9.714;2022-09-06T08:28:44;6.32;;;1.60;;
56391;SDS011;42289;53.582;9.714;2022-09-06T08:31:13;7.82;;;1.80;;
56391;SDS011;42289;53.582;9.714;2022-09-06T08:33:42;7.18;;;1.70;;
56391;SDS011;42289;53.582;9.714;2022-09-06T08:36:09;6.63;;;1.77;;
56391;SDS011;42289;53.582;9.714;2022-09-06T08:38:36;4.82;;;1.40;;
56391;SDS011;42289;53.582;9.714;2022-09-06T08:41:07;10.32;;;1.80;;
56391;SDS011;42289;53.582;9.714;2022-09-06T08:43:35;4.97;;;1.70;;
56391;SDS011;42289;53.582;9.714;2022-09-06T08:46:02;10.27;;;2.25;;
56391;SDS011;42289;53.582;9.714;2022-09-06T08:48:33;4.78;;;1.80;;
56391;SDS011;42289;53.582;9.714;2022-09-06T08:51:07;5.22;;;1.52;;
56391;SDS011;42289;53.582;9.714;2022-09-06T08:53:51;7.68;;;1.60;;
56391;SDS011;42289;53.582;9.714;2022-09-06T08:58:58;7.03;;;1.50;;
56391;SDS011;42289;53.582;9.714;2022-09-06T09:01:31;6.35;;;1.77;;
56391;SDS011;42289;53.582;9.714;2022-09-06T09:04:04;6.15;;;1.77;;
56391;SDS011;42289;53.582;9.714;2022-09-06T09:06:37;3.15;;;1.60;;
56391;SDS011;42289;53.582;9.714;2022-09-06T09:09:05;4.55;;;1.52;;
56391;SDS011;42289;53.582;9.714;2022-09-06T09:11:32;6.03;;;1.70;;
56391;SDS011;42289;53.582;9.714;2022-09-06T09:14:01;5.57;;;2.05;;
56391;SDS011;42289;53.582;9.714;2022-09-06T09:16:30;8.43;;;1.77;;
56391;SDS011;42289;53.582;9.714;2022-09-06T09:18:58;6.70;;;1.70;;
56391;SDS011;42289;53.582;9.714;2022-09-06T09:21:29;4.47;;;1.83;;
56391;SDS011;42289;53.582;9.714;2022-09-06T09:23:58;7.32;;;1.70;;
56391;SDS011;42289;53.582;9.714;2022-09-06T09:26:30;6.30;;;1.63;;
56391;SDS011;42289;53.582;9.714;2022-09-06T09:29:02;5.55;;;1.77;;
56391;SDS011;42289;53.582;9.714;2022-09-06T09:31:32;7.28;;;2.00;;
56391;SDS011;42289;53.582;9.714;2022-09-06T09:34:00;7.53;;;1.98;;
56391;SDS011;42289;53.582;9.714;2022-09-06T09:36:30;7.80;;;1.80;;
56391;SDS011;42289;53.582;9.714;2022-09-06T09:38:57;4.28;;;1.58;;
56391;SDS011;42289;53.582;9.714;2022-09-06T09:41:25;5.30;;;1.90;;
56391;SDS011;42289;53.582;9.714;2022-09-06T09:43:55;6.38;;;1.67;;
56391;SDS011;42289;53.582;9.714;2022-09-06T09:46:29;5.18;;;1.80;;
56391;SDS011;42289;53.582;9.714;2022-09-06T09:48:58;7.03;;;2.13;;
56391;SDS011;42289;53.582;9.714;2022-09-06T09:51:30;4.97;;;1.95;;
56391;SDS011;42289;53.582;9.714;2022-09-06T09:53:57;7.32;;;2.00;;
56391;SDS011;42289;53.582;9.714;2022-09-06T09:56:26;9.20;;;3.67;;
56391;SDS011;42289;53.582;9.714;2022-09-06T09:58:57;8.77;;;3.58;;
56391;SDS011;42289;53.582;9.714;2022-09-06T10:01:25;7.70;;;1.70;;
56391;SDS011;42289;53.582;9.714;2022-09-06T10:04:04;4.22;;;1.80;;
56391;SDS011;42289;53.582;9.714;2022-09-06T10:06:33;5.65;;;1.70;;
56391;SDS011;42289;53.582;9.714;2022-09-06T10:09:11;7.70;;;1.98;;
56391;SDS011;42289;53.582;9.714;2022-09-06T10:11:46;6.43;;;2.13;;
56391;SDS011;42289;53.582;9.714;2022-09-06T10:14:21;9.68;;;2.10;;
56391;SDS011;42289;53.582;9.714;2022-09-06T10:16:51;4.95;;;2.00;;
56391;SDS011;42289;53.582;9.714;2022-09-06T10:19:21;7.50;;;1.90;;
56391;SDS011;42289;53.582;9.714;2022-09-06T10:21:51;11.50;;;2.03;;
56391;SDS011;42289;53.582;9.714;2022-09-06T10:24:25;6.90;;;2.03;;
56391;SDS011;42289;53.582;9.714;2022-09-06T10:27:02;10.82;;;2.13;;
56391;SDS011;42289;53.582;9.714;2022-09-06T10:29:31;4.90;;;1.90;;
56391;SDS011;42289;53.582;9.714;2022-09-06T10:32:11;8.85;;;2.20;;
56391;SDS011;42289;53.582;9.714;2022-09-06T10:35:00;7.90;;;3.00;;
56391;SDS011;42289;53.582;9.714;2022-09-06T10:37:40;5.97;;;2.50;;
56391;SDS011;42289;53.582;9.714;2022-09-06T10:40:14;6.93;;;1.98;;
56391;SDS011;42289;53.582;9.714;2022-09-06T10:42:51;4.88;;;1.98;;
56391;SDS011;42289;53.582;9.714;2022-09-06T10:45:33;6.57;;;2.08;;
56391;SDS011;42289;53.582;9.714;2022-09-06T10:48:08;7.10;;;2.10;;
56391;SDS011;42289;53.582;9.714;2022-09-06T10:50:41;5.67;;;2.27;;
56391;SDS011;42289;53.582;9.714;2022-09-06T10:53:17;7.93;;;2.30;;
56391;SDS011;42289;53.582;9.714;2022-09-06T10:55:57;6.05;;;2.00;;
56391;SDS011;42289;53.582;9.714;2022-09-06T10:58:30;6.55;;;2.60;;
56391;SDS011;42289;53.582;9.714;2022-09-06T11:01:04;4.25;;;2.00;;
56391;SDS011;42289;53.582;9.714;2022-09-06T11:03:34;6.22;;;2.63;;
56391;SDS011;42289;53.582;9.714;2022-09-06T11:06:05;5.60;;;2.05;;
56391;SDS011;42289;53.582;9.714;2022-09-06T11:08:35;3.80;;;1.80;;
56391;SDS011;42289;53.582;9.714;2022-09-06T11:11:09;9.52;;;2.10;;
56391;SDS011;42289;53.582;9.714;2022-09-06T11:13:41;6.18;;;2.38;;
56391;SDS011;42289;53.582;9.714;2022-09-06T11:16:08;6.53;;;2.53;;
56391;SDS011;42289;53.582;9.714;2022-09-06T11:18:38;8.68;;;2.20;;
56391;SDS011;42289;53.582;9.714;2022-09-06T11:21:22;5.55;;;2.10;;
56391;SDS011;42289;53.582;9.714;2022-09-06T11:24:07;6.05;;;2.10;;
56391;SDS011;42289;53.582;9.714;2022-09-06T11:26:41;4.57;;;2.00;;
56391;SDS011;42289;53.582;9.714;2022-09-06T11:29:09;6.78;;;2.30;;
56391;SDS011;42289;53.582;9.714;2022-09-06T11:31:50;7.00;;;2.28;;
56391;SDS011;42289;53.582;9.714;2022-09-06T11:34:19;6.22;;;2.38;;
56391;SDS011;42289;53.582;9.714;2022-09-06T11:36:49;6.47;;;2.22;;
56391;SDS011;42289;53.582;9.714;2022-09-06T11:39:29;7.40;;;2.38;;
56391;SDS011;42289;53.582;9.714;2022-09-06T11:41:58;7.20;;;2.10;;
56391;SDS011;42289;53.582;9.714;2022-09-06T11:47:42;5.20;;;1.88;;
56391;SDS011;42289;53.582;9.714;2022-09-06T11:53:13;4.63;;;1.95;;
56391;SDS011;42289;53.582;9.714;2022-09-06T11:55:43;8.18;;;2.30;;
56391;SDS011;42289;53.582;9.714;2022-09-06T11:58:19;6.88;;;2.17;;
56391;SDS011;42289;53.582;9.714;2022-09-06T12:04:01;4.40;;;2.20;;
56391;SDS011;42289;53.582;9.714;2022-09-06T12:06:31;4.82;;;2.40;;
56391;SDS011;42289;53.582;9.714;2022-09-06T12:08:59;8.77;;;2.28;;
56391;SDS011;42289;53.582;9.714;2022-09-06T12:11:35;7.47;;;2.03;;
56391;SDS011;42289;53.582;9.714;2022-09-06T12:14:03;8.20;;;2.30;;
56391;SDS011;42289;53.582;9.714;2022-09-06T12:19:39;8.52;;;2.25;;
56391;SDS011;42289;53.582;9.714;2022-09-06T12:25:14;7.18;;;2.03;;
56391;SDS011;42289;53.582;9.714;2022-09-06T12:27:51;7.63;;;2.17;;
56391;SDS011;42289;53.582;9.714;2022-09-06T12:30:29;3.78;;;2.00;;
56391;SDS011;42289;53.582;9.714;2022-09-06T12:32:58;4.45;;;1.90;;
56391;SDS011;42289;53.582;9.714;2022-09-06T12:35:27;6.40;;;2.20;;
56391;SDS011;42289;53.582;9.714;2022-09-06T12:37:55;5.63;;;1.75;;
56391;SDS011;42289;53.582;9.714;2022-09-06T12:40:24;6.00;;;1.98;;
56391;SDS011;42289;53.582;9.714;2022-09-06T12:42:53;4.72;;;1.88;;
56391;SDS011;42289;53.582;9.714;2022-09-06T12:45:21;10.45;;;1.88;;
56391;SDS011;42289;53.582;9.714;2022-09-06T12:47:48;4.88;;;1.50;;
56391;SDS011;42289;53.582;9.714;2022-09-06T12:50:16;6.05;;;1.67;;
56391;SDS011;42289;53.582;9.714;2022-09-06T12:52:46;9.27;;;2.13;;
56391;SDS011;42289;53.582;9.714;2022-09-06T12:55:15;3.92;;;1.50;;
56391;SDS011;42289;53.582;9.714;2022-09-06T12:57:46;5.57;;;1.85;;
56391;SDS011;42289;53.582;9.714;2022-09-06T13:00:15;5.07;;;1.58;;
56391;SDS011;42289;53.582;9.714;2022-09-06T13:02:44;9.48;;;1.80;;
56391;SDS011;42289;53.582;9.714;2022-09-06T13:05:19;9.75;;;1.80;;
56391;SDS011;42289;53.582;9.714;2022-09-06T13:07:47;10.05;;;2.10;;
56391;SDS011;42289;53.582;9.714;2022-09-06T13:10:16;4.55;;;2.00;;
56391;SDS011;42289;53.582;9.714;2022-09-06T13:12:46;10.30;;;1.90;;
56391;SDS011;42289;53.582;9.714;2022-09-06T13:15:19;4.97;;;1.75;;
56391;SDS011;42289;53.582;9.714;2022-09-06T13:17:49;5.30;;;1.70;;
56391;SDS011;42289;53.582;9.714;2022-09-06T13:20:21;4.53;;;1.75;;
56391;SDS011;42289;53.582;9.714;2022-09-06T13:25:22;6.07;;;1.92;;
56391;SDS011;42289;53.582;9.714;2022-09-06T13:27:50;8.27;;;1.85;;
56391;SDS011;42289;53.582;9.714;2022-09-06T13:30:33;4.07;;;1.77;;
56391;SDS011;42289;53.582;9.714;2022-09-06T13:33:06;5.93;;;2.15;;
56391;SDS011;42289;53.582;9.714;2022-09-06T13:35:34;6.25;;;1.55;;
56391;SDS011;42289;53.582;9.714;2022-09-06T13:38:17;8.77;;;1.77;;
56391;SDS011;42289;53.582;9.714;2022-09-06T13:40:45;7.93;;;2.25;;
56391;SDS011;42289;53.582;9.714;2022-09-06T13:43:15;6.57;;;2.08;;
56391;SDS011;42289;53.582;9.714;2022-09-06T13:45:48;7.25;;;2.67;;
56391;SDS011;42289;53.582;9.714;2022-09-06T13:48:14;5.60;;;1.95;;
56391;SDS011;42289;53.582;9.714;2022-09-06T13:50:41;5.65;;;1.80;;
56391;SDS011;42289;53.582;9.714;2022-09-06T13:53:07;5.95;;;1.95;;
56391;SDS011;42289;53.582;9.714;2022-09-06T13:55:35;6.40;;;1.80;;
56391;SDS011;42289;53.582;9.714;2022-09-06T13:58:01;4.18;;;1.67;;
56391;SDS011;42289;53.582;9.714;2022-09-06T14:00:28;6.78;;;1.90;;
56391;SDS011;42289;53.582;9.714;2022-09-06T14:02:56;5.10;;;1.90;;
56391;SDS011;42289;53.582;9.714;2022-09-06T14:05:24;5.25;;;1.95;;
56391;SDS011;42289;53.582;9.714;2022-09-06T14:07:51;7.25;;;2.03;;
56391;SDS011;42289;53.582;9.714;2022-09-06T14:10:17;5.93;;;1.83;;
56391;SDS011;42289;53.582;9.714;2022-09-06T14:12:46;8.25;;;2.05;;
56391;SDS011;42289;53.582;9.714;2022-09-06T14:15:12;4.88;;;2.20;;
56391;SDS011;42289;53.582;9.714;2022-09-06T14:17:38;7.72;;;2.15;;
56391;SDS011;42289;53.582;9.714;2022-09-06T14:20:07;6.80;;;2.00;;
56391;SDS011;42289;53.582;9.714;2022-09-06T14:22:43;6.25;;;1.90;;
56391;SDS011;42289;53.582;9.714;2022-09-06T14:25:12;3.85;;;1.83;;
56391;SDS011;42289;53.582;9.714;2022-09-06T14:27:41;5.82;;;1.92;;
56391;SDS011;42289;53.582;9.714;2022-09-06T14:30:07;8.60;;;1.90;;
56391;SDS011;42289;53.582;9.714;2022-09-06T14:32:35;6.60;;;1.70;;
56391;SDS011;42289;53.582;9.714;2022-09-06T14:35:01;6.72;;;2.10;;
56391;SDS011;42289;53.582;9.714;2022-09-06T14:37:30;4.07;;;1.88;;
56391;SDS011;42289;53.582;9.714;2022-09-06T14:39:57;5.40;;;2.03;;
56391;SDS011;42289;53.582;9.714;2022-09-06T14:42:24;4.80;;;1.75;;
56391;SDS011;42289;53.582;9.714;2022-09-06T14:44:52;4.93;;;1.95;;
56391;SDS011;42289;53.582;9.714;2022-09-06T14:47:18;5.70;;;2.17;;
56391;SDS011;42289;53.582;9.714;2022-09-06T14:49:45;5.53;;;2.00;;
56391;SDS011;42289;53.582;9.714;2022-09-06T14:52:11;7.35;;;1.80;;
56391;SDS011;42289;53.582;9.714;2022-09-06T14:54:39;5.72;;;1.90;;
56391;SDS011;42289;53.582;9.714;2022-09-06T14:57:05;8.68;;;1.92;;
56391;SDS011;42289;53.582;9.714;2022-09-06T14:59:32;4.10;;;2.03;;
56391;SDS011;42289;53.582;9.714;2022-09-06T15:01:58;6.63;;;2.00;;
56391;SDS011;42289;53.582;9.714;2022-09-06T15:04:24;6.30;;;2.15;;
56391;SDS011;42289;53.582;9.714;2022-09-06T15:06:51;4.70;;;1.83;;
56391;SDS011;42289;53.582;9.714;2022-09-06T15:09:18;7.00;;;2.13;;
56391;SDS011;42289;53.582;9.714;2022-09-06T15:11:46;5.07;;;2.08;;
56391;SDS011;42289;53.582;9.714;2022-09-06T15:14:15;11.98;;;2.28;;
56391;SDS011;42289;53.582;9.714;2022-09-06T15:16:44;6.15;;;2.30;;
56391;SDS011;42289;53.582;9.714;2022-09-06T15:19:11;4.43;;;1.90;;
56391;SDS011;42289;53.582;9.714;2022-09-06T15:21:37;6.10;;;2.10;;